createdAt,value
2023-03-16T00:00:01.309Z,1.00
2023-03-16T00:01:01.334Z,0.99
2023-03-16T00:02:01.501Z,0.99
2023-03-16T00:03:01.342Z,0.99
2023-03-16T00:04:01.296Z,1.00
2023-03-16T00:05:01.257Z,1.02
2023-03-16T00:06:15.925Z,1.07
2023-03-16T00:07:03.924Z,1.07
2023-03-16T00:08:01.253Z,1.07
2023-03-16T00:09:01.250Z,1.10
2023-03-16T00:10:01.206Z,1.11
2023-03-16T00:11:01.202Z,1.14
2023-03-16T00:12:01.185Z,1.13
2023-03-16T00:13:01.185Z,1.16
2023-03-16T00:14:01.170Z,1.16
2023-03-16T00:15:01.177Z,1.20
2023-03-16T00:16:01.193Z,1.20
2023-03-16T00:17:01.141Z,1.25
2023-03-16T00:18:01.156Z,1.24
2023-03-16T00:19:01.127Z,1.25
2023-03-16T00:20:22.111Z,1.24
2023-03-16T00:21:01.107Z,1.25
2023-03-16T00:22:01.107Z,1.21
2023-03-16T00:23:01.100Z,1.25
2023-03-16T00:24:01.076Z,1.26
2023-03-16T00:25:01.079Z,1.24
2023-03-16T00:26:01.053Z,1.24
2023-03-16T00:27:01.045Z,1.25
2023-03-16T00:28:01.032Z,1.25
2023-03-16T00:29:01.051Z,1.25
2023-03-16T00:30:01.013Z,1.24
2023-03-16T00:31:01.010Z,1.24
2023-03-16T00:32:01.012Z,1.21
2023-03-16T00:33:01.034Z,1.21
2023-03-16T00:34:00.977Z,1.20
2023-03-16T00:35:00.967Z,1.21
2023-03-16T00:36:01.002Z,1.18
2023-03-16T00:37:00.924Z,1.18
2023-03-16T00:38:00.918Z,1.20
2023-03-16T00:39:00.904Z,1.17
2023-03-16T00:40:00.925Z,1.16
2023-03-16T00:41:00.883Z,1.16
2023-03-16T00:42:00.882Z,1.13
2023-03-16T00:43:00.866Z,1.11
2023-03-16T00:44:00.850Z,1.11
2023-03-16T00:45:00.843Z,1.10
2023-03-16T00:46:00.915Z,1.08
2023-03-16T00:47:00.830Z,1.08
2023-03-16T00:48:00.820Z,1.08
2023-03-16T00:49:00.810Z,1.10
2023-03-16T00:50:00.796Z,1.10
2023-03-16T00:51:00.794Z,1.07
2023-03-16T00:52:00.791Z,1.10
2023-03-16T00:53:00.765Z,1.07
2023-03-16T00:54:00.764Z,1.10
2023-03-16T00:55:00.742Z,1.08
2023-03-16T00:56:00.734Z,1.07
2023-03-16T00:57:00.740Z,1.06
2023-03-16T00:58:00.713Z,1.07
2023-03-16T00:59:00.702Z,1.06
2023-03-16T01:00:00.704Z,1.00
2023-03-16T01:01:00.745Z,0.99
2023-03-16T01:02:00.672Z,0.99
2023-03-16T01:03:00.729Z,0.99
2023-03-16T01:04:00.660Z,0.95
2023-03-16T01:05:00.639Z,0.92
2023-03-16T01:06:00.639Z,0.89
2023-03-16T01:07:00.633Z,0.86
2023-03-16T01:08:00.618Z,0.81
2023-03-16T01:09:00.625Z,0.77
2023-03-16T01:10:00.604Z,0.74
2023-03-16T01:11:00.582Z,0.74
2023-03-16T01:12:00.569Z,0.71
2023-03-16T01:13:00.587Z,0.71
2023-03-16T01:14:00.546Z,0.70
2023-03-16T01:15:00.567Z,0.71
2023-03-16T01:16:00.534Z,0.70
2023-03-16T01:17:00.561Z,0.67
2023-03-16T01:18:00.542Z,0.62
2023-03-16T01:19:00.503Z,0.57
2023-03-16T01:20:00.518Z,0.59
2023-03-16T01:21:00.481Z,0.59
2023-03-16T01:22:00.476Z,0.60
2023-03-16T01:23:00.466Z,0.56
2023-03-16T01:24:00.497Z,0.51
2023-03-16T01:25:00.431Z,0.51
2023-03-16T01:26:00.448Z,0.48
2023-03-16T01:27:00.420Z,0.45
2023-03-16T01:28:00.421Z,0.44
2023-03-16T01:29:00.406Z,0.45
2023-03-16T01:30:00.387Z,0.43
2023-03-16T01:31:00.453Z,0.43
2023-03-16T01:32:00.368Z,0.40
2023-03-16T01:33:00.415Z,0.37
2023-03-16T01:34:00.353Z,0.38
2023-03-16T01:35:00.334Z,0.37
2023-03-16T01:36:00.396Z,0.34
2023-03-16T01:37:00.319Z,0.35
2023-03-16T01:38:00.312Z,0.34
2023-03-16T01:39:00.330Z,0.34
2023-03-16T01:40:00.313Z,0.30
2023-03-16T01:41:00.287Z,0.28
2023-03-16T01:42:00.267Z,0.28
2023-03-16T01:43:00.262Z,0.26
2023-03-16T01:44:00.246Z,0.28
2023-03-16T01:45:00.304Z,0.28
2023-03-16T01:46:00.309Z,0.23
2023-03-16T01:47:00.209Z,0.17
2023-03-16T01:48:00.206Z,0.17
2023-03-16T01:49:00.192Z,0.16
2023-03-16T01:50:00.210Z,0.16
2023-03-16T01:51:00.179Z,0.16
2023-03-16T01:52:00.174Z,0.16
2023-03-16T01:53:00.157Z,0.16
2023-03-16T01:54:00.209Z,0.15
2023-03-16T01:55:00.133Z,0.15
2023-03-16T01:56:00.145Z,0.15
2023-03-16T01:57:00.113Z,0.15
2023-03-16T01:58:00.118Z,0.13
2023-03-16T01:59:00.115Z,0.12
2023-03-16T02:00:00.111Z,0.13
2023-03-16T02:01:00.201Z,0.10
2023-03-16T02:02:00.126Z,0.10
2023-03-16T02:03:00.067Z,0.07
2023-03-16T02:04:00.076Z,0.04
2023-03-16T02:05:00.046Z,0.04
2023-03-16T02:06:00.036Z,0.02
2023-03-16T02:07:00.005Z,0.01
2023-03-16T02:08:00.038Z,0.02
2023-03-16T02:08:59.986Z,-0.01
2023-03-16T02:09:59.981Z,0.01
2023-03-16T02:10:59.976Z,-0.02
2023-03-16T02:11:59.960Z,-0.02
2023-03-16T02:12:59.952Z,-0.03
2023-03-16T02:13:59.962Z,-0.02
2023-03-16T02:14:59.934Z,0.01
2023-03-16T02:15:59.985Z,-0.01
2023-03-16T02:16:59.904Z,-0.03
2023-03-16T02:17:59.907Z,-0.03
2023-03-16T02:18:59.884Z,-0.05
2023-03-16T02:19:59.933Z,-0.05
2023-03-16T02:20:59.864Z,-0.06
2023-03-16T02:21:59.872Z,-0.05
2023-03-16T02:22:59.842Z,-0.06
2023-03-16T02:23:59.839Z,-0.06
2023-03-16T02:24:59.879Z,-0.09
2023-03-16T02:25:59.820Z,-0.09
2023-03-16T02:26:59.814Z,-0.08
2023-03-16T02:27:59.802Z,-0.08
2023-03-16T02:28:59.788Z,-0.09
2023-03-16T02:29:59.826Z,-0.08
2023-03-16T02:30:59.819Z,-0.08
2023-03-16T02:31:59.762Z,-0.08
2023-03-16T02:32:59.808Z,-0.06
2023-03-16T02:33:59.746Z,-0.09
2023-03-16T02:34:59.721Z,-0.13
2023-03-16T02:35:59.789Z,-0.13
2023-03-16T02:36:59.712Z,-0.12
2023-03-16T02:37:59.694Z,-0.09
2023-03-16T02:38:59.690Z,-0.12
2023-03-16T02:39:59.682Z,-0.14
2023-03-16T02:40:59.665Z,-0.16
2023-03-16T02:41:59.680Z,-0.17
2023-03-16T02:42:59.649Z,-0.17
2023-03-16T02:43:59.651Z,-0.20
2023-03-16T02:44:59.637Z,-0.21
2023-03-16T02:45:59.722Z,-0.20
2023-03-16T02:46:59.606Z,-0.21
2023-03-16T02:47:59.593Z,-0.20
2023-03-16T02:48:59.593Z,-0.23
2023-03-16T02:49:59.570Z,-0.24
2023-03-16T02:50:59.571Z,-0.27
2023-03-16T02:51:59.562Z,-0.30
2023-03-16T02:52:59.565Z,-0.30
2023-03-16T02:53:59.544Z,-0.30
2023-03-16T02:54:59.531Z,-0.31
2023-03-16T02:55:59.508Z,-0.31
2023-03-16T02:56:59.504Z,-0.34
2023-03-16T02:57:59.528Z,-0.34
2023-03-16T02:58:59.489Z,-0.30
2023-03-16T02:59:59.477Z,-0.34
2023-03-16T03:00:59.458Z,-0.32
2023-03-16T03:01:59.449Z,-0.31
2023-03-16T03:02:59.547Z,-0.32
2023-03-16T03:03:59.459Z,-0.34
2023-03-16T03:04:59.426Z,-0.34
2023-03-16T03:05:59.412Z,-0.31
2023-03-16T03:06:59.404Z,-0.31
2023-03-16T03:07:59.405Z,-0.32
2023-03-16T03:08:59.383Z,-0.34
2023-03-16T03:09:59.378Z,-0.32
2023-03-16T03:10:59.358Z,-0.35
2023-03-16T03:11:59.355Z,-0.32
2023-03-16T03:12:59.386Z,-0.32
2023-03-16T03:13:59.363Z,-0.34
2023-03-16T03:14:59.321Z,-0.37
2023-03-16T03:15:59.461Z,-0.41
2023-03-16T03:16:59.309Z,-0.38
2023-03-16T03:17:59.295Z,-0.38
2023-03-16T03:18:59.311Z,-0.39
2023-03-16T03:19:59.275Z,-0.38
2023-03-16T03:20:59.260Z,-0.38
2023-03-16T03:21:59.257Z,-0.35
2023-03-16T03:22:59.238Z,-0.35
2023-03-16T03:23:59.270Z,-0.34
2023-03-16T03:24:59.230Z,-0.37
2023-03-16T03:25:59.237Z,-0.35
2023-03-16T03:26:59.199Z,-0.34
2023-03-16T03:27:59.279Z,-0.32
2023-03-16T03:28:59.210Z,-0.35
2023-03-16T03:29:59.206Z,-0.34
2023-03-16T03:30:59.160Z,-0.32
2023-03-16T03:31:59.188Z,-0.30
2023-03-16T03:32:59.232Z,-0.21
2023-03-16T03:33:59.133Z,-0.19
2023-03-16T03:34:59.118Z,-0.14
2023-03-16T03:35:59.212Z,-0.13
2023-03-16T03:36:59.121Z,-0.12
2023-03-16T03:37:59.093Z,-0.08
2023-03-16T03:38:59.090Z,-0.12
2023-03-16T03:39:59.070Z,-0.09
2023-03-16T03:40:59.079Z,-0.05
2023-03-16T03:41:59.066Z,-0.03
2023-03-16T03:42:59.036Z,-0.02
2023-03-16T03:43:59.038Z,-0.01
2023-03-16T03:44:59.015Z,0.02
2023-03-16T03:45:59.200Z,0.07
2023-03-16T03:46:59.101Z,0.10
2023-03-16T03:47:59.039Z,0.16
2023-03-16T03:48:58.976Z,0.22
2023-03-16T03:49:58.971Z,0.23
2023-03-16T03:50:58.964Z,0.26
2023-03-16T03:51:58.947Z,0.30
2023-03-16T03:52:58.950Z,0.31
2023-03-16T03:53:58.949Z,0.34
2023-03-16T03:54:58.951Z,0.37
2023-03-16T03:55:58.901Z,0.35
2023-03-16T03:56:58.894Z,0.38
2023-03-16T03:57:58.914Z,0.38
2023-03-16T03:58:58.887Z,0.38
2023-03-16T03:59:58.883Z,0.40
2023-03-16T04:00:58.855Z,0.43
2023-03-16T04:01:58.885Z,0.44
2023-03-16T04:02:58.943Z,0.51
2023-03-16T04:03:58.834Z,0.51
2023-03-16T04:04:58.838Z,0.51
2023-03-16T04:05:58.813Z,0.53
2023-03-16T04:06:58.799Z,0.53
2023-03-16T04:07:58.813Z,0.53
2023-03-16T04:08:58.779Z,0.53
2023-03-16T04:09:58.776Z,0.52
2023-03-16T04:10:58.766Z,0.52
2023-03-16T04:11:58.770Z,0.51
2023-03-16T04:12:58.729Z,0.49
2023-03-16T04:13:58.723Z,0.51
2023-03-16T04:14:58.766Z,0.49
2023-03-16T04:15:58.714Z,0.51
2023-03-16T04:16:58.780Z,0.52
2023-03-16T04:17:58.680Z,0.53
2023-03-16T04:18:58.681Z,0.53
2023-03-16T04:19:58.690Z,0.56
2023-03-16T04:20:58.684Z,0.56
2023-03-16T04:21:58.644Z,0.59
2023-03-16T04:22:58.845Z,0.57
2023-03-16T04:23:58.642Z,0.60
2023-03-16T04:24:58.613Z,0.60
2023-03-16T04:25:58.609Z,0.62
2023-03-16T04:26:58.611Z,0.62
2023-03-16T04:27:58.596Z,0.62
2023-03-16T04:28:58.574Z,0.64
2023-03-16T04:29:58.561Z,0.63
2023-03-16T04:30:58.635Z,0.64
2023-03-16T04:31:58.536Z,0.63
2023-03-16T04:32:58.607Z,0.63
2023-03-16T04:33:58.528Z,0.64
2023-03-16T04:34:58.518Z,0.63
2023-03-16T04:35:58.537Z,0.63
2023-03-16T04:36:58.547Z,0.62
2023-03-16T04:37:58.480Z,0.62
2023-03-16T04:38:58.472Z,0.60
2023-03-16T04:39:58.462Z,0.60
2023-03-16T04:40:58.458Z,0.60
2023-03-16T04:41:58.443Z,0.60
2023-03-16T04:42:58.457Z,0.57
2023-03-16T04:43:58.436Z,0.59
2023-03-16T04:44:58.413Z,0.63
2023-03-16T04:45:58.450Z,0.64
2023-03-16T04:46:58.405Z,0.68
2023-03-16T04:47:58.382Z,0.68
2023-03-16T04:48:58.613Z,0.71
2023-03-16T04:49:58.366Z,0.72
2023-03-16T04:50:58.367Z,0.74
2023-03-16T04:51:58.335Z,0.72
2023-03-16T04:52:58.325Z,0.70
2023-03-16T04:53:58.331Z,0.72
2023-03-16T04:54:58.320Z,0.71
2023-03-16T04:55:58.338Z,0.72
2023-03-16T04:56:58.325Z,0.74
2023-03-16T04:57:58.282Z,0.72
2023-03-16T04:58:58.280Z,0.74
2023-03-16T04:59:58.266Z,0.75
2023-03-16T05:00:58.284Z,0.77
2023-03-16T05:01:58.362Z,0.75
2023-03-16T05:02:58.231Z,0.74
2023-03-16T05:03:59.725Z,0.75
2023-03-16T05:04:58.216Z,0.77
2023-03-16T05:05:58.286Z,0.77
2023-03-16T05:06:58.207Z,0.80
2023-03-16T05:07:58.191Z,0.80
2023-03-16T05:08:58.110Z,0.84
2023-03-16T05:09:58.159Z,0.82
2023-03-16T05:10:58.133Z,0.86
2023-03-16T05:11:58.117Z,0.86
2023-03-16T05:12:58.132Z,0.88
2023-03-16T05:13:58.113Z,0.88
2023-03-16T05:14:58.118Z,0.88
2023-03-16T05:15:58.169Z,0.88
2023-03-16T05:16:58.052Z,0.89
2023-03-16T05:17:58.095Z,0.89
2023-03-16T05:18:58.072Z,0.90
2023-03-16T05:19:58.072Z,0.89
2023-03-16T05:20:57.999Z,0.90
2023-03-16T05:21:57.987Z,0.92
2023-03-16T05:22:57.984Z,0.90
2023-03-16T05:23:57.989Z,0.90
2023-03-16T05:24:57.949Z,0.89
2023-03-16T05:25:57.962Z,0.89
2023-03-16T05:26:57.936Z,0.89
2023-03-16T05:27:57.950Z,0.89
2023-03-16T05:28:57.932Z,0.89
2023-03-16T05:29:57.895Z,0.89
2023-03-16T05:30:57.952Z,0.90
2023-03-16T05:31:57.910Z,0.90
2023-03-16T05:32:58.059Z,0.92
2023-03-16T05:33:57.914Z,0.90
2023-03-16T05:34:57.861Z,0.92
2023-03-16T05:35:57.921Z,0.93
2023-03-16T05:36:57.849Z,0.93
2023-03-16T05:37:57.835Z,0.93
2023-03-16T05:38:57.812Z,0.92
2023-03-16T05:39:57.878Z,0.95
2023-03-16T05:40:57.789Z,0.95
2023-03-16T05:41:57.780Z,0.98
2023-03-16T05:42:57.795Z,0.99
2023-03-16T05:43:57.767Z,0.99
2023-03-16T05:44:57.748Z,1.00
2023-03-16T05:45:57.878Z,0.99
2023-03-16T05:46:57.876Z,1.00
2023-03-16T05:47:57.753Z,1.02
2023-03-16T05:48:57.719Z,1.04
2023-03-16T05:49:57.996Z,1.06
2023-03-16T05:50:57.698Z,1.06
2023-03-16T05:51:57.678Z,1.04
2023-03-16T05:52:57.676Z,1.02
2023-03-16T05:53:57.669Z,1.06
2023-03-16T05:54:57.675Z,1.07
2023-03-16T05:55:57.670Z,1.06
2023-03-16T05:56:57.627Z,1.04
2023-03-16T05:57:57.627Z,1.06
2023-03-16T05:58:57.611Z,1.06
2023-03-16T05:59:57.596Z,1.07
2023-03-16T06:00:57.603Z,1.08
2023-03-16T06:01:57.638Z,1.08
2023-03-16T06:02:57.683Z,1.08
2023-03-16T06:03:57.574Z,1.10
2023-03-16T06:04:57.550Z,1.11
2023-03-16T06:05:57.542Z,1.14
2023-03-16T06:06:57.523Z,1.16
2023-03-16T06:07:57.539Z,1.17
2023-03-16T06:08:57.508Z,1.16
2023-03-16T06:09:57.500Z,1.17
2023-03-16T06:10:57.493Z,1.17
2023-03-16T06:11:57.478Z,1.16
2023-03-16T06:12:59.782Z,1.14
2023-03-16T06:13:57.479Z,1.16
2023-03-16T06:14:57.450Z,1.18
2023-03-16T06:15:57.480Z,1.17
2023-03-16T06:16:57.438Z,1.18
2023-03-16T06:17:57.420Z,1.20
2023-03-16T06:18:59.745Z,1.21
2023-03-16T06:19:57.406Z,1.20
2023-03-16T06:20:57.439Z,1.20
2023-03-16T06:21:57.430Z,1.20
2023-03-16T06:22:57.378Z,1.18
2023-03-16T06:23:57.353Z,1.20
2023-03-16T06:24:57.352Z,1.20
2023-03-16T06:25:57.328Z,1.21
2023-03-16T06:26:57.333Z,1.21
2023-03-16T06:27:57.320Z,1.21
2023-03-16T06:28:57.303Z,1.21
2023-03-16T06:29:57.293Z,1.21
2023-03-16T06:30:57.314Z,1.25
2023-03-16T06:31:57.506Z,1.25
2023-03-16T06:32:57.312Z,1.25
2023-03-16T06:33:57.275Z,1.26
2023-03-16T06:34:57.246Z,1.28
2023-03-16T06:35:57.273Z,1.26
2023-03-16T06:36:57.223Z,1.28
2023-03-16T06:37:57.238Z,1.28
2023-03-16T06:38:57.201Z,1.29
2023-03-16T06:39:57.188Z,1.29
2023-03-16T06:40:57.180Z,1.28
2023-03-16T06:41:57.191Z,1.28
2023-03-16T06:42:57.190Z,1.26
2023-03-16T06:43:57.153Z,1.29
2023-03-16T06:44:57.137Z,1.28
2023-03-16T06:45:57.155Z,1.29
2023-03-16T06:46:57.124Z,1.29
2023-03-16T06:47:57.139Z,1.31
2023-03-16T06:48:57.103Z,1.34
2023-03-16T06:49:57.097Z,1.31
2023-03-16T06:50:57.085Z,1.32
2023-03-16T06:51:57.096Z,1.34
2023-03-16T06:52:57.057Z,1.32
2023-03-16T06:53:57.048Z,1.32
2023-03-16T06:54:57.056Z,1.34
2023-03-16T06:55:57.043Z,1.31
2023-03-16T06:56:57.017Z,1.34
2023-03-16T06:57:57.030Z,1.35
2023-03-16T06:58:56.996Z,1.32
2023-03-16T06:59:56.998Z,1.34
2023-03-16T07:00:57.012Z,1.35
2023-03-16T07:01:56.973Z,1.35
2023-03-16T07:02:58.891Z,1.35
2023-03-16T07:03:56.988Z,1.36
2023-03-16T07:04:56.972Z,1.38
2023-03-16T07:05:56.925Z,1.35
2023-03-16T07:06:56.918Z,1.35
2023-03-16T07:07:56.911Z,1.38
2023-03-16T07:08:56.904Z,1.38
2023-03-16T07:09:56.883Z,1.38
2023-03-16T07:10:56.870Z,1.38
2023-03-16T07:11:56.889Z,1.39
2023-03-16T07:12:56.849Z,1.39
2023-03-16T07:13:56.858Z,1.38
2023-03-16T07:14:56.839Z,1.42
2023-03-16T07:15:56.816Z,1.43
2023-03-16T07:16:56.921Z,1.44
2023-03-16T07:17:56.819Z,1.44
2023-03-16T07:18:56.801Z,1.46
2023-03-16T07:19:56.791Z,1.49
2023-03-16T07:20:56.787Z,1.49
2023-03-16T07:21:56.752Z,1.50
2023-03-16T07:22:56.748Z,1.52
2023-03-16T07:23:56.732Z,1.56
2023-03-16T07:24:56.806Z,1.56
2023-03-16T07:25:56.752Z,1.54
2023-03-16T07:26:56.756Z,1.56
2023-03-16T07:27:56.699Z,1.60
2023-03-16T07:28:58.130Z,1.60
2023-03-16T07:29:56.691Z,1.60
2023-03-16T07:31:03.854Z,1.57
2023-03-16T07:31:56.708Z,1.61
2023-03-16T07:32:56.719Z,1.63
2023-03-16T07:33:56.654Z,1.65
2023-03-16T07:34:58.769Z,1.65
2023-03-16T07:35:56.634Z,1.64
2023-03-16T07:36:56.614Z,1.65
2023-03-16T07:37:56.612Z,1.68
2023-03-16T07:38:56.602Z,1.71
2023-03-16T07:39:56.586Z,1.71
2023-03-16T07:40:56.563Z,1.72
2023-03-16T07:41:56.551Z,1.75
2023-03-16T07:42:56.539Z,1.75
2023-03-16T07:43:56.546Z,1.81
2023-03-16T07:44:56.530Z,1.82
2023-03-16T07:45:56.560Z,1.83
2023-03-16T07:46:56.500Z,1.85
2023-03-16T07:47:56.510Z,1.82
2023-03-16T07:48:56.504Z,1.85
2023-03-16T07:49:56.478Z,1.88
2023-03-16T07:50:56.456Z,1.88
2023-03-16T07:51:56.444Z,1.88
2023-03-16T07:52:56.440Z,1.88
2023-03-16T07:53:56.431Z,1.88
2023-03-16T07:54:56.434Z,1.88
2023-03-16T07:55:56.404Z,1.90
2023-03-16T07:56:56.396Z,1.92
2023-03-16T07:57:56.387Z,1.92
2023-03-16T07:58:56.375Z,1.89
2023-03-16T07:59:56.397Z,1.92
2023-03-16T08:00:56.349Z,1.90
2023-03-16T08:01:56.352Z,1.93
2023-03-16T08:02:56.335Z,1.95
2023-03-16T08:03:56.332Z,2.01
2023-03-16T08:04:56.351Z,2.01
2023-03-16T08:05:56.304Z,2.04
2023-03-16T08:06:56.317Z,2.02
2023-03-16T08:07:56.293Z,2.04
2023-03-16T08:08:56.276Z,2.05
2023-03-16T08:09:56.258Z,2.05
2023-03-16T08:10:56.792Z,2.05
2023-03-16T08:11:56.240Z,2.07
2023-03-16T08:12:56.320Z,2.07
2023-03-16T08:13:56.221Z,2.11
2023-03-16T08:14:56.222Z,2.08
2023-03-16T08:15:56.307Z,2.09
2023-03-16T08:16:56.202Z,2.09
2023-03-16T08:17:56.185Z,2.11
2023-03-16T08:18:56.176Z,2.09
2023-03-16T08:19:56.159Z,2.12
2023-03-16T08:20:56.161Z,2.09
2023-03-16T08:22:01.475Z,2.12
2023-03-16T08:22:56.137Z,2.14
2023-03-16T08:23:56.147Z,2.15
2023-03-16T08:24:56.106Z,2.15
2023-03-16T08:25:56.112Z,2.19
2023-03-16T08:26:56.102Z,2.23
2023-03-16T08:27:56.091Z,2.25
2023-03-16T08:28:56.118Z,2.27
2023-03-16T08:29:56.077Z,2.27
2023-03-16T08:30:56.112Z,2.29
2023-03-16T08:31:56.059Z,2.30
2023-03-16T08:32:56.131Z,2.32
2023-03-16T08:33:56.024Z,2.36
2023-03-16T08:34:56.013Z,2.37
2023-03-16T08:35:56.139Z,2.40
2023-03-16T08:36:55.982Z,2.44
2023-03-16T08:37:56.007Z,2.45
2023-03-16T08:39:06.408Z,2.45
2023-03-16T08:39:55.962Z,2.47
2023-03-16T08:40:55.968Z,2.45
2023-03-16T08:41:55.934Z,2.44
2023-03-16T08:42:55.941Z,2.41
2023-03-16T08:43:55.948Z,2.44
2023-03-16T08:44:55.904Z,2.45
2023-03-16T08:45:56.016Z,2.47
2023-03-16T08:46:56.018Z,2.48
2023-03-16T08:47:55.876Z,2.50
2023-03-16T08:48:55.879Z,2.53
2023-03-16T08:49:55.862Z,2.53
2023-03-16T08:50:55.866Z,2.55
2023-03-16T08:51:55.837Z,2.59
2023-03-16T08:52:55.827Z,2.59
2023-03-16T08:53:55.810Z,2.61
2023-03-16T08:55:02.927Z,2.59
2023-03-16T08:55:55.796Z,2.61
2023-03-16T08:56:55.842Z,2.61
2023-03-16T08:57:55.765Z,2.65
2023-03-16T08:58:55.752Z,2.66
2023-03-16T08:59:55.766Z,2.69
2023-03-16T09:00:55.745Z,2.69
2023-03-16T09:01:55.834Z,2.73
2023-03-16T09:02:55.739Z,2.73
2023-03-16T09:03:55.727Z,2.71
2023-03-16T09:04:55.703Z,2.73
2023-03-16T09:05:55.688Z,2.73
2023-03-16T09:07:09.005Z,2.71
2023-03-16T09:07:55.685Z,2.74
2023-03-16T09:08:55.649Z,2.74
2023-03-16T09:09:55.658Z,2.74
2023-03-16T09:10:55.641Z,2.76
2023-03-16T09:11:55.622Z,2.77
2023-03-16T09:12:55.616Z,2.77
2023-03-16T09:13:55.617Z,2.77
2023-03-16T09:14:55.589Z,2.81
2023-03-16T09:15:55.683Z,2.81
2023-03-16T09:16:55.574Z,2.81
2023-03-16T09:17:55.558Z,2.89
2023-03-16T09:18:55.569Z,2.86
2023-03-16T09:20:01.363Z,2.81
2023-03-16T09:20:55.541Z,2.84
2023-03-16T09:21:55.560Z,2.84
2023-03-16T09:22:55.530Z,2.84
2023-03-16T09:23:55.513Z,2.86
2023-03-16T09:24:55.493Z,2.92
2023-03-16T09:25:55.477Z,2.95
2023-03-16T09:26:55.511Z,3.01
2023-03-16T09:27:55.462Z,3.04
2023-03-16T09:28:55.467Z,3.10
2023-03-16T09:29:55.451Z,3.13
2023-03-16T09:30:55.446Z,3.13
2023-03-16T09:31:55.459Z,3.15
2023-03-16T09:32:55.442Z,3.20
2023-03-16T09:33:55.401Z,3.22
2023-03-16T09:34:55.404Z,3.23
2023-03-16T09:35:55.452Z,3.30
2023-03-16T09:36:55.382Z,3.30
2023-03-16T09:38:05.554Z,3.33
2023-03-16T09:38:55.358Z,3.35
2023-03-16T09:39:58.016Z,3.41
2023-03-16T09:40:55.352Z,3.39
2023-03-16T09:41:55.336Z,3.37
2023-03-16T09:42:55.343Z,3.37
2023-03-16T09:43:55.297Z,3.37
2023-03-16T09:44:55.300Z,3.37
2023-03-16T09:45:55.355Z,3.39
2023-03-16T09:46:55.273Z,3.39
2023-03-16T09:47:55.261Z,3.44
2023-03-16T09:48:55.246Z,3.44
2023-03-16T09:49:55.257Z,3.49
2023-03-16T09:50:55.802Z,3.54
2023-03-16T09:51:55.231Z,3.59
2023-03-16T09:52:55.209Z,3.60
2023-03-16T09:53:55.205Z,3.63
2023-03-16T09:54:55.190Z,3.67
2023-03-16T09:55:55.179Z,3.71
2023-03-16T09:56:55.186Z,3.71
2023-03-16T09:57:55.155Z,3.72
2023-03-16T09:58:55.145Z,3.72
2023-03-16T09:59:55.136Z,3.74
2023-03-16T10:00:55.165Z,3.72
2023-03-16T10:01:55.137Z,3.71
2023-03-16T10:02:55.136Z,3.74
2023-03-16T10:03:55.117Z,3.75
2023-03-16T10:04:55.093Z,3.77
2023-03-16T10:05:55.078Z,3.84
2023-03-16T10:06:55.060Z,3.82
2023-03-16T10:07:55.059Z,3.89
2023-03-16T10:08:55.057Z,3.92
2023-03-16T10:09:55.049Z,3.96
2023-03-16T10:10:55.023Z,4.00
2023-03-16T10:11:55.021Z,4.06
2023-03-16T10:12:55.007Z,4.02
2023-03-16T10:13:55.002Z,4.02
2023-03-16T10:14:55.034Z,4.06
2023-03-16T10:15:54.966Z,4.08
2023-03-16T10:16:55.051Z,4.14
2023-03-16T10:17:54.958Z,4.20
2023-03-16T10:18:55.890Z,4.25
2023-03-16T10:19:54.945Z,4.25
2023-03-16T10:20:54.945Z,4.29
2023-03-16T10:21:54.906Z,4.31
2023-03-16T10:22:54.903Z,4.32
2023-03-16T10:23:54.906Z,4.32
2023-03-16T10:24:54.887Z,4.35
2023-03-16T10:25:54.921Z,4.34
2023-03-16T10:26:54.861Z,4.36
2023-03-16T10:27:54.861Z,4.42
2023-03-16T10:28:54.867Z,4.42
2023-03-16T10:29:54.832Z,4.47
2023-03-16T10:30:54.821Z,4.50
2023-03-16T10:31:54.884Z,4.51
2023-03-16T10:32:54.880Z,4.54
2023-03-16T10:33:54.794Z,4.56
2023-03-16T10:34:54.794Z,4.59
2023-03-16T10:35:54.788Z,4.62
2023-03-16T10:36:54.762Z,4.61
2023-03-16T10:37:54.757Z,4.61
2023-03-16T10:38:54.742Z,4.61
2023-03-16T10:39:54.849Z,4.57
2023-03-16T10:40:54.743Z,4.61
2023-03-16T10:41:54.707Z,4.64
2023-03-16T10:42:54.705Z,4.62
2023-03-16T10:43:54.685Z,4.59
2023-03-16T10:44:54.682Z,4.59
2023-03-16T10:45:54.797Z,4.59
2023-03-16T10:46:54.694Z,4.64
2023-03-16T10:47:54.651Z,4.68
2023-03-16T10:48:54.663Z,4.77
2023-03-16T10:49:54.647Z,4.79
2023-03-16T10:50:54.639Z,4.80
2023-03-16T10:51:54.644Z,4.80
2023-03-16T10:52:54.613Z,4.74
2023-03-16T10:53:54.596Z,4.74
2023-03-16T10:54:54.598Z,4.75
2023-03-16T10:55:54.582Z,4.74
2023-03-16T10:56:54.573Z,4.75
2023-03-16T10:57:54.581Z,4.79
2023-03-16T10:58:54.555Z,4.84
2023-03-16T10:59:54.533Z,4.90
2023-03-16T11:00:54.536Z,4.96
2023-03-16T11:01:54.525Z,5.02
2023-03-16T11:02:54.510Z,5.09
2023-03-16T11:03:54.521Z,5.11
2023-03-16T11:04:54.688Z,5.12
2023-03-16T11:05:54.482Z,5.12
2023-03-16T11:06:54.476Z,5.15
2023-03-16T11:07:54.469Z,5.19
2023-03-16T11:08:54.467Z,5.22
2023-03-16T11:09:54.465Z,5.22
2023-03-16T11:10:56.129Z,5.19
2023-03-16T11:11:54.426Z,5.14
2023-03-16T11:12:54.439Z,5.14
2023-03-16T11:13:54.407Z,5.14
2023-03-16T11:14:54.423Z,5.17
2023-03-16T11:15:54.400Z,5.17
2023-03-16T11:16:54.448Z,5.17
2023-03-16T11:17:54.368Z,5.17
2023-03-16T11:18:54.363Z,5.20
2023-03-16T11:19:54.379Z,5.19
2023-03-16T11:20:54.358Z,5.20
2023-03-16T11:21:54.341Z,5.20
2023-03-16T11:22:54.319Z,5.23
2023-03-16T11:23:54.311Z,5.24
2023-03-16T11:24:54.310Z,5.24
2023-03-16T11:25:54.383Z,5.27
2023-03-16T11:26:54.295Z,5.29
2023-03-16T11:27:54.315Z,5.26
2023-03-16T11:28:54.269Z,5.26
2023-03-16T11:29:54.259Z,5.27
2023-03-16T11:30:54.307Z,5.27
2023-03-16T11:31:54.229Z,5.29
2023-03-16T11:32:54.472Z,5.27
2023-03-16T11:33:54.235Z,5.22
2023-03-16T11:34:54.195Z,5.22
2023-03-16T11:35:59.363Z,5.23
2023-03-16T11:36:54.190Z,5.20
2023-03-16T11:37:54.173Z,5.19
2023-03-16T11:38:55.756Z,5.15
2023-03-16T11:39:54.181Z,5.12
2023-03-16T11:40:54.159Z,5.09
2023-03-16T11:41:54.138Z,5.05
2023-03-16T11:42:54.124Z,5.06
2023-03-16T11:43:54.148Z,5.06
2023-03-16T11:44:54.114Z,5.08
2023-03-16T11:45:54.173Z,5.06
2023-03-16T11:46:54.096Z,5.08
2023-03-16T11:47:54.075Z,5.08
2023-03-16T11:48:54.085Z,5.08
2023-03-16T11:49:54.055Z,5.11
2023-03-16T11:50:54.048Z,5.11
2023-03-16T11:51:54.039Z,5.14
2023-03-16T11:52:54.026Z,5.14
2023-03-16T11:53:54.012Z,5.14
2023-03-16T11:54:54.047Z,5.17
2023-03-16T11:55:53.995Z,5.12
2023-03-16T11:56:53.983Z,5.12
2023-03-16T11:57:53.974Z,5.17
2023-03-16T11:58:53.955Z,5.19
2023-03-16T12:00:01.038Z,5.20
2023-03-16T12:00:53.954Z,5.20
2023-03-16T12:02:00.157Z,5.22
2023-03-16T12:02:54.069Z,5.24
2023-03-16T12:03:53.991Z,5.23
2023-03-16T12:04:53.913Z,5.19
2023-03-16T12:05:53.884Z,5.22
2023-03-16T12:06:53.880Z,5.19
2023-03-16T12:07:53.876Z,5.19
2023-03-16T12:08:53.858Z,5.20
2023-03-16T12:09:53.873Z,5.22
2023-03-16T12:10:53.840Z,5.23
2023-03-16T12:11:53.882Z,5.23
2023-03-16T12:12:53.816Z,5.23
2023-03-16T12:13:53.807Z,5.20
2023-03-16T12:14:53.848Z,5.20
2023-03-16T12:15:53.889Z,5.23
2023-03-16T12:16:53.861Z,5.24
2023-03-16T12:17:53.778Z,5.24
2023-03-16T12:18:53.758Z,5.26
2023-03-16T12:19:53.759Z,5.27
2023-03-16T12:20:53.737Z,5.29
2023-03-16T12:21:53.732Z,5.29
2023-03-16T12:22:53.743Z,5.29
2023-03-16T12:23:53.706Z,5.30
2023-03-16T12:24:53.699Z,5.27
2023-03-16T12:25:53.722Z,5.29
2023-03-16T12:26:53.689Z,5.29
2023-03-16T12:27:53.668Z,5.30
2023-03-16T12:28:53.657Z,5.32
2023-03-16T12:29:53.654Z,5.33
2023-03-16T12:30:53.638Z,5.35
2023-03-16T12:31:53.723Z,5.38
2023-03-16T12:32:53.740Z,5.38
2023-03-16T12:33:53.607Z,5.41
2023-03-16T12:34:53.714Z,5.37
2023-03-16T12:35:53.669Z,5.33
2023-03-16T12:36:53.581Z,5.35
2023-03-16T12:37:53.586Z,5.33
2023-03-16T12:38:53.586Z,5.35
2023-03-16T12:39:53.558Z,5.32
2023-03-16T12:40:53.536Z,5.32
2023-03-16T12:41:53.527Z,5.33
2023-03-16T12:42:53.524Z,5.32
2023-03-16T12:43:53.549Z,5.37
2023-03-16T12:44:53.517Z,5.38
2023-03-16T12:45:53.523Z,5.40
2023-03-16T12:46:53.479Z,5.40
2023-03-16T12:47:53.472Z,5.40
2023-03-16T12:48:53.476Z,5.41
2023-03-16T12:49:53.450Z,5.40
2023-03-16T12:50:53.449Z,5.40
2023-03-16T12:51:53.426Z,5.40
2023-03-16T12:52:53.455Z,5.41
2023-03-16T12:53:53.411Z,5.42
2023-03-16T12:54:53.403Z,5.44
2023-03-16T12:55:53.391Z,5.45
2023-03-16T12:56:53.384Z,5.48
2023-03-16T12:57:53.394Z,5.51
2023-03-16T12:58:53.358Z,5.55
2023-03-16T12:59:53.344Z,5.56
2023-03-16T13:00:53.373Z,5.59
2023-03-16T13:01:53.333Z,5.60
2023-03-16T13:02:53.316Z,5.58
2023-03-16T13:03:53.343Z,5.58
2023-03-16T13:04:53.349Z,5.58
2023-03-16T13:05:53.303Z,5.58
2023-03-16T13:06:53.282Z,5.56
2023-03-16T13:07:53.280Z,5.55
2023-03-16T13:08:53.268Z,5.59
2023-03-16T13:09:53.293Z,5.58
2023-03-16T13:10:53.262Z,5.60
2023-03-16T13:11:53.375Z,5.59
2023-03-16T13:12:53.247Z,5.62
2023-03-16T13:13:53.216Z,5.65
2023-03-16T13:14:53.203Z,5.69